createdAt,value
2019-05-18T00:00:23.538Z,11.88
2019-05-18T00:02:56.942Z,11.93
2019-05-18T00:05:30.338Z,11.90
2019-05-18T00:08:03.741Z,11.99
2019-05-18T00:10:37.136Z,11.88
2019-05-18T00:13:10.548Z,11.69
2019-05-18T00:15:43.974Z,11.62
2019-05-18T00:18:17.370Z,11.55
2019-05-18T00:20:50.762Z,11.57
2019-05-18T00:23:24.165Z,11.58
2019-05-18T00:25:57.626Z,11.54
2019-05-18T00:28:31.044Z,11.51
2019-05-18T00:31:04.428Z,11.52
2019-05-18T00:33:37.879Z,11.58
2019-05-18T00:36:11.274Z,11.57
2019-05-18T00:38:44.706Z,11.42
2019-05-18T00:41:18.104Z,11.28
2019-05-18T00:43:51.520Z,11.32
2019-05-18T00:46:24.916Z,11.25
2019-05-18T00:48:58.302Z,11.19
2019-05-18T00:51:31.697Z,11.17
2019-05-18T00:54:05.250Z,11.14
2019-05-18T00:56:38.642Z,11.17
2019-05-18T00:59:15.974Z,11.37
2019-05-18T01:01:47.153Z,11.44
2019-05-18T01:04:20.579Z,11.43
2019-05-18T01:06:53.962Z,11.43
2019-05-18T01:09:27.403Z,11.36
2019-05-18T01:12:00.875Z,11.19
2019-05-18T01:14:34.284Z,10.87
2019-05-18T01:17:07.762Z,10.81
2019-05-18T01:19:41.148Z,10.87
2019-05-18T01:22:14.611Z,10.81
2019-05-18T01:24:48.012Z,10.74
2019-05-18T01:27:21.387Z,10.69
2019-05-18T01:29:54.803Z,10.69
2019-05-18T01:32:28.767Z,10.63
2019-05-18T01:35:02.263Z,10.81
2019-05-18T01:37:35.643Z,10.86
2019-05-18T01:40:09.690Z,10.81
2019-05-18T01:42:43.086Z,10.81
2019-05-18T01:45:17.664Z,10.77
2019-05-18T01:47:51.297Z,10.81
2019-05-18T01:50:24.719Z,10.84
2019-05-18T01:52:58.116Z,10.82
2019-05-18T01:55:31.547Z,10.83
2019-05-18T01:58:04.996Z,10.87
2019-05-18T02:00:38.401Z,10.99
2019-05-18T02:03:11.804Z,11.01
2019-05-18T02:05:45.209Z,11.04
2019-05-18T02:08:18.590Z,11.16
2019-05-18T02:10:51.996Z,11.17
2019-05-18T02:13:25.400Z,11.08
2019-05-18T02:15:58.815Z,11.03
2019-05-18T02:18:32.215Z,11.01
2019-05-18T02:21:05.722Z,10.97
2019-05-18T02:23:39.135Z,10.94
2019-05-18T02:26:12.537Z,10.93
2019-05-18T02:28:46.017Z,11.00
2019-05-18T02:31:19.391Z,10.96
2019-05-18T02:33:52.854Z,10.93
2019-05-18T02:36:26.289Z,10.96
2019-05-18T02:38:59.755Z,10.94
2019-05-18T02:41:33.177Z,10.92
2019-05-18T02:44:06.902Z,10.85
2019-05-18T02:46:40.320Z,10.80
2019-05-18T02:49:13.750Z,10.89
2019-05-18T02:51:47.171Z,10.78
2019-05-18T02:54:20.542Z,10.78
2019-05-18T02:56:53.961Z,10.71
2019-05-18T02:59:27.382Z,10.64
2019-05-18T03:02:00.770Z,10.67
2019-05-18T03:04:34.180Z,10.62
2019-05-18T03:07:07.665Z,10.61
2019-05-18T03:09:41.347Z,10.58
2019-05-18T03:12:14.747Z,10.55
2019-05-18T03:14:48.705Z,10.50
2019-05-18T03:17:22.098Z,10.41
2019-05-18T03:19:55.525Z,10.30
2019-05-18T03:22:28.973Z,10.19
2019-05-18T03:25:02.662Z,10.13
2019-05-18T03:27:36.045Z,10.04
2019-05-18T03:30:10.136Z,10.00
2019-05-18T03:32:43.486Z,10.07
2019-05-18T03:35:16.981Z,9.97
2019-05-18T03:37:50.377Z,9.98
2019-05-18T03:40:23.796Z,9.80
2019-05-18T03:42:57.174Z,9.75
2019-05-18T03:45:30.598Z,9.77
2019-05-18T03:48:04.000Z,9.87
2019-05-18T03:50:37.412Z,9.76
2019-05-18T03:53:10.792Z,9.79
2019-05-18T03:55:44.208Z,9.96
2019-05-18T03:58:17.609Z,9.98
2019-05-18T04:00:51.046Z,9.95
2019-05-18T04:03:24.424Z,9.91
2019-05-18T04:05:57.865Z,9.91
2019-05-18T04:08:31.241Z,9.95
2019-05-18T04:11:04.729Z,9.99
2019-05-18T04:13:38.109Z,10.09
2019-05-18T04:16:11.529Z,10.14
2019-05-18T04:18:44.990Z,10.23
2019-05-18T04:21:18.367Z,10.28
2019-05-18T04:23:51.745Z,10.19
2019-05-18T04:26:25.163Z,10.15
2019-05-18T04:28:58.557Z,10.22
2019-05-18T04:31:32.644Z,10.29
2019-05-18T04:34:06.236Z,10.35
2019-05-18T04:36:39.653Z,10.40
2019-05-18T04:39:13.036Z,10.53
2019-05-18T04:41:46.435Z,10.60
2019-05-18T04:44:19.813Z,10.65
2019-05-18T04:46:53.221Z,10.74
2019-05-18T04:49:26.624Z,10.78
2019-05-18T04:52:00.025Z,10.73
2019-05-18T04:54:33.409Z,10.70
2019-05-18T04:57:06.858Z,10.66
2019-05-18T04:59:40.210Z,10.74
2019-05-18T05:02:13.621Z,10.78
2019-05-18T05:04:46.994Z,10.78
2019-05-18T05:07:20.474Z,10.80
2019-05-18T05:09:53.902Z,10.89
2019-05-18T05:12:27.248Z,10.98
2019-05-18T05:15:00.654Z,11.04
2019-05-18T05:17:34.074Z,11.11
2019-05-18T05:20:19.155Z,11.26
2019-05-18T05:22:42.841Z,11.26
2019-05-18T05:25:16.234Z,11.21
2019-05-18T05:27:49.654Z,11.28
2019-05-18T05:30:23.035Z,11.42
2019-05-18T05:32:56.514Z,11.27
2019-05-18T05:35:29.984Z,11.53
2019-05-18T05:38:03.496Z,11.71
2019-05-18T05:40:36.938Z,11.85
2019-05-18T05:43:10.360Z,11.81
2019-05-18T05:45:43.765Z,11.88
2019-05-18T05:48:17.313Z,11.96
2019-05-18T05:50:50.651Z,12.12
2019-05-18T05:53:24.054Z,12.06
2019-05-18T05:55:57.456Z,12.28
2019-05-18T05:58:30.869Z,11.89
2019-05-18T06:01:04.284Z,11.90
2019-05-18T06:03:37.694Z,11.94
2019-05-18T06:06:11.087Z,12.12
2019-05-18T06:08:44.557Z,12.48
2019-05-18T06:11:18.027Z,12.54
2019-05-18T06:13:51.479Z,12.41
2019-05-18T06:16:24.859Z,12.24
2019-05-18T06:18:58.268Z,12.41
2019-05-18T06:21:32.141Z,12.20
2019-05-18T06:24:05.701Z,12.34
2019-05-18T06:26:39.101Z,12.79
2019-05-18T06:29:12.527Z,12.82
2019-05-18T06:31:45.936Z,14.80
2019-05-18T06:34:19.344Z,14.80
2019-05-18T06:36:55.836Z,14.89
2019-05-18T06:39:28.281Z,16.25
2019-05-18T06:42:01.686Z,16.43
2019-05-18T06:44:35.077Z,15.97
2019-05-18T06:47:08.473Z,16.24
2019-05-18T06:49:41.897Z,17.65
2019-05-18T06:52:15.297Z,18.09
2019-05-18T06:54:48.787Z,19.07
2019-05-18T06:57:25.043Z,19.09
2019-05-18T06:59:59.415Z,16.95
2019-05-18T07:02:32.822Z,17.34
2019-05-18T07:05:07.218Z,17.71
2019-05-18T07:07:40.945Z,16.68
2019-05-18T07:10:14.461Z,15.87
2019-05-18T07:12:47.856Z,15.45
2019-05-18T07:15:21.553Z,15.71
2019-05-18T07:17:54.969Z,16.05
2019-05-18T07:20:28.403Z,15.91
2019-05-18T07:23:01.788Z,16.04
2019-05-18T07:25:35.207Z,16.06
2019-05-18T07:28:08.717Z,15.70
2019-05-18T07:30:42.118Z,15.71
2019-05-18T07:33:15.544Z,15.67
2019-05-18T07:35:48.979Z,15.66
2019-05-18T07:38:22.372Z,15.82
2019-05-18T07:40:55.873Z,15.43
2019-05-18T07:43:29.284Z,15.35
2019-05-18T07:46:02.713Z,15.60
2019-05-18T07:48:36.900Z,15.35
2019-05-18T07:51:10.515Z,15.37
2019-05-18T07:53:44.286Z,15.16
2019-05-18T07:56:18.006Z,15.25
2019-05-18T07:58:51.525Z,14.85
2019-05-18T08:01:24.924Z,14.95
2019-05-18T08:03:58.334Z,14.59
2019-05-18T08:06:31.724Z,14.77
2019-05-18T08:09:07.423Z,14.85
2019-05-18T08:11:40.766Z,15.00
2019-05-18T08:14:14.211Z,15.06
2019-05-18T08:16:47.603Z,14.98
2019-05-18T08:19:21.047Z,15.34
2019-05-18T08:21:54.462Z,14.94
2019-05-18T08:24:28.667Z,15.13
2019-05-18T08:27:02.544Z,15.31
2019-05-18T08:29:36.119Z,15.53
2019-05-18T08:32:09.515Z,15.31
2019-05-18T08:34:43.047Z,15.42
2019-05-18T08:37:16.500Z,15.43
2019-05-18T08:39:49.947Z,14.89
2019-05-18T08:42:23.356Z,15.54
2019-05-18T08:44:56.762Z,16.02
2019-05-18T08:47:30.148Z,16.05
2019-05-18T08:50:05.417Z,16.39
2019-05-18T08:52:38.809Z,16.45
2019-05-18T08:55:12.352Z,16.80
2019-05-18T08:57:45.734Z,16.43
2019-05-18T09:00:19.418Z,16.36
2019-05-18T09:02:52.817Z,16.63
2019-05-18T09:05:26.226Z,16.84
2019-05-18T09:07:59.643Z,16.86
2019-05-18T09:10:33.147Z,17.95
2019-05-18T09:13:06.694Z,17.21
2019-05-18T09:15:40.130Z,17.67
2019-05-18T09:18:13.554Z,17.56
2019-05-18T09:20:46.963Z,17.80
2019-05-18T09:23:20.358Z,17.45
2019-05-18T09:25:53.842Z,17.89
2019-05-18T09:28:27.320Z,17.71
2019-05-18T09:31:00.790Z,18.03
2019-05-18T09:33:34.179Z,18.34
2019-05-18T09:36:07.654Z,17.99
2019-05-18T09:38:41.047Z,18.26
2019-05-18T09:41:14.528Z,17.66
2019-05-18T09:43:47.912Z,17.77
2019-05-18T09:46:21.308Z,18.25
2019-05-18T09:48:54.695Z,18.31
2019-05-18T09:51:28.139Z,18.43
2019-05-18T09:54:01.614Z,18.22
2019-05-18T09:56:35.016Z,17.85
2019-05-18T09:59:08.507Z,18.32
2019-05-18T10:01:41.928Z,17.96
2019-05-18T10:04:15.322Z,17.64
2019-05-18T10:06:48.733Z,17.77
2019-05-18T10:09:22.139Z,18.38
2019-05-18T10:11:55.571Z,18.19
2019-05-18T10:14:28.963Z,18.43
2019-05-18T10:17:02.489Z,18.90
2019-05-18T10:19:35.924Z,18.84
2019-05-18T10:22:09.399Z,19.50
2019-05-18T10:24:42.730Z,19.72
2019-05-18T10:27:16.217Z,19.69
2019-05-18T10:29:49.622Z,19.33
2019-05-18T10:32:23.152Z,19.05
2019-05-18T10:34:56.526Z,19.41
2019-05-18T10:37:30.327Z,19.83
2019-05-18T10:40:07.588Z,20.14
2019-05-18T10:42:41.068Z,20.39
2019-05-18T10:45:14.805Z,20.11
2019-05-18T10:47:48.215Z,19.76
2019-05-18T10:50:21.608Z,20.33
2019-05-18T10:52:55.026Z,20.49
2019-05-18T10:55:28.458Z,20.09
2019-05-18T10:58:01.856Z,20.95
2019-05-18T11:00:35.332Z,20.48
2019-05-18T11:03:08.742Z,21.07
2019-05-18T11:05:42.139Z,20.92
2019-05-18T11:08:15.617Z,20.94
2019-05-18T11:10:49.050Z,20.98
2019-05-18T11:13:22.458Z,21.71
2019-05-18T11:15:55.843Z,21.79
2019-05-18T11:18:30.376Z,22.15
2019-05-18T11:21:04.017Z,20.91
2019-05-18T11:23:43.713Z,21.51
2019-05-18T11:26:12.666Z,21.13
2019-05-18T11:28:46.131Z,21.13
2019-05-18T11:31:19.533Z,20.67
2019-05-18T11:33:52.943Z,21.23
2019-05-18T11:36:26.410Z,21.88
2019-05-18T11:38:59.829Z,22.10
2019-05-18T11:41:33.240Z,22.32
2019-05-18T11:44:07.089Z,21.64
2019-05-18T11:46:40.564Z,21.91
2019-05-18T11:49:14.006Z,21.99
2019-05-18T11:51:47.468Z,21.58
2019-05-18T11:54:20.981Z,21.70
2019-05-18T11:56:54.404Z,21.49
2019-05-18T11:59:27.790Z,21.75
2019-05-18T12:02:01.194Z,21.90
2019-05-18T12:04:34.602Z,21.68
2019-05-18T12:07:08.082Z,21.51
2019-05-18T12:09:41.449Z,21.39
2019-05-18T12:12:14.870Z,21.13
2019-05-18T12:14:48.272Z,21.53
2019-05-18T12:17:21.662Z,21.52
2019-05-18T12:19:55.070Z,21.41
2019-05-18T12:22:28.458Z,21.07
2019-05-18T12:25:01.867Z,20.78
2019-05-18T12:27:35.258Z,20.40
2019-05-18T12:30:13.846Z,20.41
2019-05-18T12:32:47.279Z,20.35
2019-05-18T12:35:21.798Z,20.10
2019-05-18T12:37:55.241Z,20.01
2019-05-18T12:40:28.738Z,19.74
2019-05-18T12:43:02.128Z,19.25
2019-05-18T12:45:35.640Z,18.67
2019-05-18T12:48:09.208Z,18.11
2019-05-18T12:50:42.700Z,17.78
2019-05-18T12:53:17.794Z,17.80
2019-05-18T12:55:51.298Z,17.91
2019-05-18T12:58:24.699Z,17.96
2019-05-18T13:00:58.102Z,17.80
2019-05-18T13:03:31.496Z,17.80
2019-05-18T13:06:06.347Z,17.93
2019-05-18T13:08:39.838Z,17.84
2019-05-18T13:11:13.288Z,17.82
2019-05-18T13:13:46.723Z,17.97
2019-05-18T13:16:20.185Z,18.18
2019-05-18T13:18:53.598Z,18.35
2019-05-18T13:21:27.026Z,18.45
2019-05-18T13:24:00.459Z,18.69
2019-05-18T13:26:33.958Z,18.13
2019-05-18T13:29:07.377Z,17.63
2019-05-18T13:31:40.785Z,17.46
2019-05-18T13:34:14.247Z,17.64
2019-05-18T13:36:47.666Z,17.74
2019-05-18T13:39:21.069Z,17.76
2019-05-18T13:41:54.490Z,17.72
2019-05-18T13:44:27.896Z,17.82
2019-05-18T13:47:01.318Z,17.91
2019-05-18T13:49:34.821Z,18.35
2019-05-18T13:52:08.307Z,18.77
2019-05-18T13:54:41.742Z,18.79
2019-05-18T13:57:15.136Z,19.31
2019-05-18T13:59:48.653Z,18.35
2019-05-18T14:02:22.036Z,18.97
2019-05-18T14:04:55.453Z,19.17
2019-05-18T14:07:28.850Z,18.91
2019-05-18T14:10:02.249Z,19.02
2019-05-18T14:12:35.716Z,19.10
2019-05-18T14:15:10.193Z,18.92
2019-05-18T14:17:43.604Z,19.23
2019-05-18T14:20:19.079Z,19.85
2019-05-18T14:22:52.491Z,20.12
2019-05-18T14:25:25.941Z,20.23
2019-05-18T14:27:59.329Z,20.10
2019-05-18T14:30:32.836Z,20.16
2019-05-18T14:33:06.311Z,19.68
2019-05-18T14:35:39.730Z,19.54
2019-05-18T14:38:13.207Z,19.45
2019-05-18T14:40:46.594Z,19.23
2019-05-18T14:43:20.066Z,19.05
2019-05-18T14:45:53.553Z,19.09
2019-05-18T14:48:26.939Z,18.96
2019-05-18T14:51:00.361Z,18.93
2019-05-18T14:53:33.779Z,18.91
2019-05-18T14:56:07.402Z,18.68
2019-05-18T14:58:40.818Z,18.62
2019-05-18T15:01:14.214Z,18.67
2019-05-18T15:03:48.022Z,19.03
2019-05-18T15:06:21.509Z,19.41
2019-05-18T15:08:54.936Z,19.59
2019-05-18T15:11:28.381Z,19.60
2019-05-18T15:14:01.806Z,19.38
2019-05-18T15:16:35.302Z,19.49
2019-05-18T15:19:08.764Z,19.49
2019-05-18T15:21:42.329Z,19.54
2019-05-18T15:24:17.501Z,19.63
2019-05-18T15:26:50.998Z,19.77
2019-05-18T15:29:24.405Z,19.50
2019-05-18T15:31:57.893Z,19.84
2019-05-18T15:34:31.287Z,19.83
2019-05-18T15:37:04.717Z,19.90
2019-05-18T15:39:38.114Z,20.06
2019-05-18T15:42:11.534Z,19.69
2019-05-18T15:44:44.907Z,20.65
2019-05-18T15:47:18.400Z,22.16
2019-05-18T15:49:51.811Z,23.03
2019-05-18T15:52:25.229Z,23.65
2019-05-18T15:54:58.643Z,22.97
2019-05-18T15:57:32.131Z,22.13
2019-05-18T16:00:08.180Z,23.19
2019-05-18T16:02:41.679Z,22.18
2019-05-18T16:05:15.406Z,21.19
2019-05-18T16:07:48.806Z,22.06
2019-05-18T16:10:22.423Z,21.95
2019-05-18T16:12:55.835Z,21.95
2019-05-18T16:15:29.294Z,22.03
2019-05-18T16:18:02.768Z,22.57
2019-05-18T16:20:36.153Z,22.21
2019-05-18T16:23:09.569Z,21.53
2019-05-18T16:25:43.212Z,22.14
2019-05-18T16:28:16.713Z,22.35
2019-05-18T16:30:50.181Z,21.34
2019-05-18T16:33:23.642Z,21.57
2019-05-18T16:35:57.037Z,21.32
2019-05-18T16:38:30.452Z,21.38
2019-05-18T16:41:03.910Z,21.22
2019-05-18T16:43:37.333Z,20.94
2019-05-18T16:46:10.740Z,20.24
2019-05-18T16:48:44.214Z,19.96
2019-05-18T16:51:17.607Z,19.83
2019-05-18T16:53:51.397Z,19.72
2019-05-18T16:56:34.815Z,19.41
2019-05-18T16:59:00.672Z,19.12
2019-05-18T17:01:34.211Z,18.89
2019-05-18T17:04:07.648Z,18.94
2019-05-18T17:06:41.045Z,18.60
2019-05-18T17:09:14.533Z,18.46
2019-05-18T17:11:48.287Z,18.51
2019-05-18T17:14:21.726Z,18.55
2019-05-18T17:16:55.119Z,18.47
2019-05-18T17:19:28.552Z,18.43
2019-05-18T17:22:01.955Z,18.34
2019-05-18T17:24:35.366Z,18.00
2019-05-18T17:27:08.758Z,17.91
2019-05-18T17:29:42.197Z,17.82
2019-05-18T17:32:15.597Z,17.64
2019-05-18T17:34:49.018Z,17.54
2019-05-18T17:37:22.437Z,17.48
2019-05-18T17:39:55.855Z,17.44
2019-05-18T17:42:29.270Z,17.43
2019-05-18T17:45:02.670Z,17.36
2019-05-18T17:47:36.125Z,17.21
2019-05-18T17:50:10.186Z,17.00
2019-05-18T17:52:43.689Z,16.96
2019-05-18T17:55:17.349Z,16.78
2019-05-18T17:57:50.760Z,16.72
2019-05-18T18:00:24.322Z,16.72
2019-05-18T18:02:57.753Z,16.50
2019-05-18T18:05:31.181Z,16.26
2019-05-18T18:08:04.639Z,16.16
2019-05-18T18:10:38.073Z,16.12
2019-05-18T18:13:11.473Z,16.14
2019-05-18T18:15:45.032Z,16.14
2019-05-18T18:18:18.524Z,16.11
2019-05-18T18:20:52.002Z,16.06
2019-05-18T18:23:25.446Z,16.09
2019-05-18T18:25:58.908Z,15.88
2019-05-18T18:28:32.280Z,15.55
2019-05-18T18:31:05.783Z,15.29
2019-05-18T18:33:39.217Z,15.17
2019-05-18T18:36:12.678Z,14.97
2019-05-18T18:38:46.257Z,14.79
2019-05-18T18:41:19.696Z,14.67
2019-05-18T18:43:53.100Z,14.52
2019-05-18T18:46:26.564Z,14.49
2019-05-18T18:48:59.981Z,14.28
2019-05-18T18:51:33.507Z,14.21
2019-05-18T18:54:06.932Z,14.11
2019-05-18T18:56:40.411Z,14.07
2019-05-18T18:59:13.889Z,14.01
2019-05-18T19:01:47.307Z,14.00
2019-05-18T19:04:20.707Z,14.00
2019-05-18T19:06:54.119Z,14.09
2019-05-18T19:09:27.531Z,14.16
2019-05-18T19:12:00.970Z,14.24
2019-05-18T19:14:34.434Z,14.27
2019-05-18T19:17:07.876Z,14.10
2019-05-18T19:19:41.268Z,14.02
2019-05-18T19:22:14.715Z,14.06
2019-05-18T19:24:48.109Z,14.02
2019-05-18T19:27:21.534Z,14.05
2019-05-18T19:29:54.946Z,14.06
2019-05-18T19:32:28.387Z,14.11
2019-05-18T19:35:01.800Z,14.11
2019-05-18T19:37:35.223Z,14.04
2019-05-18T19:40:10.294Z,13.83
2019-05-18T19:42:43.743Z,13.69
2019-05-18T19:45:17.230Z,13.63
2019-05-18T19:47:50.654Z,13.56
2019-05-18T19:50:24.047Z,13.64
2019-05-18T19:52:57.551Z,13.53
2019-05-18T19:55:30.957Z,13.59
2019-05-18T19:58:08.756Z,13.63
2019-05-18T20:00:39.582Z,13.67
2019-05-18T20:03:13.028Z,13.62
2019-05-18T20:05:46.411Z,13.67
2019-05-18T20:08:19.818Z,13.70
2019-05-18T20:10:53.251Z,13.60
2019-05-18T20:13:26.651Z,13.52
2019-05-18T20:16:00.046Z,13.45
2019-05-18T20:18:33.448Z,13.48
2019-05-18T20:21:06.892Z,13.39
2019-05-18T20:23:40.301Z,13.39
2019-05-18T20:26:13.699Z,13.41
2019-05-18T20:28:47.144Z,13.34
2019-05-18T20:31:20.615Z,13.32
2019-05-18T20:33:54.057Z,13.45
2019-05-18T20:36:27.481Z,13.49
2019-05-18T20:39:00.910Z,13.47
2019-05-18T20:41:34.383Z,13.47
2019-05-18T20:44:07.906Z,13.45
2019-05-18T20:46:41.326Z,13.39
2019-05-18T20:49:14.720Z,13.33
2019-05-18T20:51:48.209Z,13.39
2019-05-18T20:54:21.684Z,13.38
2019-05-18T20:56:55.114Z,13.39
2019-05-18T20:59:28.523Z,13.39
2019-05-18T21:02:01.972Z,13.26
2019-05-18T21:04:35.388Z,13.16
2019-05-18T21:07:08.888Z,13.19
2019-05-18T21:09:42.263Z,13.29
2019-05-18T21:12:15.678Z,13.29
2019-05-18T21:14:49.085Z,13.26
2019-05-18T21:17:22.623Z,13.19
2019-05-18T21:19:56.012Z,13.20
2019-05-18T21:22:29.427Z,13.18
2019-05-18T21:25:02.978Z,13.15
2019-05-18T21:27:36.395Z,13.18
2019-05-18T21:30:10.064Z,13.16
2019-05-18T21:32:43.494Z,13.10
2019-05-18T21:35:16.872Z,13.10
2019-05-18T21:37:50.290Z,13.12
2019-05-18T21:40:26.194Z,13.07
2019-05-18T21:42:58.862Z,13.10
2019-05-18T21:45:32.353Z,13.13
2019-05-18T21:48:05.836Z,13.14
2019-05-18T21:50:39.251Z,13.11
2019-05-18T21:53:12.688Z,13.14
2019-05-18T21:55:46.083Z,13.13
2019-05-18T21:58:19.505Z,13.16
2019-05-18T22:00:53.030Z,13.16
2019-05-18T22:03:26.711Z,13.18
2019-05-18T22:06:00.105Z,13.14
2019-05-18T22:08:33.516Z,13.17
2019-05-18T22:11:07.002Z,13.13
2019-05-18T22:13:40.427Z,13.08
2019-05-18T22:16:13.851Z,13.06
2019-05-18T22:18:47.280Z,13.16
2019-05-18T22:21:20.697Z,13.19
2019-05-18T22:23:54.123Z,13.17
2019-05-18T22:26:27.552Z,13.12
2019-05-18T22:29:00.972Z,13.00
2019-05-18T22:31:34.403Z,12.95
2019-05-18T22:34:07.821Z,12.94
2019-05-18T22:36:41.241Z,12.93
2019-05-18T22:39:14.669Z,12.89
2019-05-18T22:41:48.090Z,12.86
2019-05-18T22:44:21.523Z,12.88
2019-05-18T22:46:54.939Z,12.86
2019-05-18T22:49:28.359Z,12.95
2019-05-18T22:52:01.756Z,12.99
2019-05-18T22:54:35.156Z,13.01
2019-05-18T22:57:08.566Z,12.91
2019-05-18T22:59:41.998Z,12.83
2019-05-18T23:02:15.393Z,12.80
2019-05-18T23:04:48.816Z,12.78
2019-05-18T23:07:22.227Z,12.79
2019-05-18T23:09:55.632Z,12.82
2019-05-18T23:12:29.144Z,12.84
2019-05-18T23:15:02.532Z,12.96
2019-05-18T23:17:35.912Z,12.99
2019-05-18T23:20:10.911Z,12.82
2019-05-18T23:22:44.383Z,12.78
2019-05-18T23:25:17.903Z,12.83
2019-05-18T23:27:51.288Z,12.87
2019-05-18T23:30:25.561Z,12.89
2019-05-18T23:32:58.993Z,12.87
2019-05-18T23:35:32.831Z,12.84
2019-05-18T23:38:06.269Z,12.75
2019-05-18T23:40:39.684Z,12.71
2019-05-18T23:43:13.107Z,12.66
2019-05-18T23:45:46.519Z,12.61
2019-05-18T23:48:19.929Z,12.57
2019-05-18T23:50:53.401Z,12.60
2019-05-18T23:53:26.809Z,12.60
2019-05-18T23:56:00.267Z,12.49
2019-05-18T23:58:33.644Z,12.53
